Time;durP1;ratioP1;P1;durP2;ratioP2;P2;SDS_P1;SDS_P2;PMS_P1;PMS_P2;Temp;Humidity;BMP_temperature;BMP_pressure;BME280_temperature;BME280_humidity;BME280_pressure;Samples;Min_cycle;Max_cycle;Signal;HPM_P1;HPM_P2
2022/08/19 00:15:37;;;;;;;;;;;;;;;;;;;;;
2022/08/19 00:24:40;;;;;;;28.65;16.83;;;23.70;99.90;;;;;;5090786;23;20074;-93
2022/08/19 00:27:13;;;;;;;32.28;17.00;;;23.60;99.90;;;;;;4938752;29;20031;-95
2022/08/19 00:35:11;;;;;;;54.50;23.95;;;23.70;99.90;;;;;;5212196;23;20093;-93
2022/08/19 00:53:49;;;;;;;74.20;26.95;;;23.50;99.90;;;;;;5498234;23;20077;-93
2022/08/19 00:57:03;;;;;;;77.93;29.42;;;23.50;99.90;;;;;;4947118;28;20125;-93
2022/08/19 00:59:37;;;;;;;72.63;26.77;;;23.50;99.90;;;;;;4947928;28;20081;-93
2022/08/19 01:11:39;;;;;;;67.13;25.67;;;23.40;99.90;;;;;;5072754;23;20058;-91
2022/08/19 07:00:01;;;;;;;17.83;13.77;;;35.10;99.90;;;;;;5399097;23;20383;-86
2022/08/19 07:02:29;;;;;;;20.95;12.90;;;35.10;99.90;;;;;;4938979;29;20075;-89
2022/08/19 07:05:02;;;;;;;26.50;13.82;;;34.80;99.90;;;;;;4927706;29;20107;-93
2022/08/19 07:07:31;;;;;;;21.92;14.70;;;34.90;99.90;;;;;;4914981;29;20032;-89
2022/08/19 07:09:58;;;;;;;26.88;15.13;;;35.20;99.90;;;;;;4922183;29;20031;-89
2022/08/19 07:12:25;;;;;;;25.10;13.98;;;35.20;99.90;;;;;;4921735;29;20064;-91
2022/08/19 07:14:53;;;;;;;26.27;14.80;;;35.10;99.90;;;;;;4905434;29;20080;-90
2022/08/19 07:17:20;;;;;;;18.75;14.23;;;35.60;99.90;;;;;;4903388;29;20052;-85
2022/08/19 07:19:46;;;;;;;19.10;14.32;;;36.00;99.90;;;;;;4922972;29;20500;-86
2022/08/19 07:22:13;;;;;;;17.77;14.48;;;36.40;99.90;;;;;;4924989;29;20068;-86
2022/08/19 07:24:39;;;;;;;18.17;14.00;;;36.40;99.90;;;;;;4923312;29;20024;-87
2022/08/19 07:27:07;;;;;;;30.73;15.02;;;36.40;99.90;;;;;;4906517;29;20398;-86
2022/08/19 07:29:36;;;;;;;25.60;14.77;;;36.20;99.90;;;;;;4921323;29;20047;-86
2022/08/19 07:32:04;;;;;;;23.55;14.20;;;36.10;99.90;;;;;;4921769;29;20040;-87
2022/08/19 07:34:37;;;;;;;34.85;15.68;;;36.30;99.90;;;;;;4919005;29;20063;-86
2022/08/19 07:37:06;;;;;;;22.88;14.75;;;36.90;99.90;;;;;;4919355;29;20028;-86
2022/08/19 07:39:35;;;;;;;26.17;14.68;;;37.50;99.90;;;;;;4920575;29;20036;-87
2022/08/19 07:42:06;;;;;;;20.00;14.90;;;37.60;99.90;;;;;;4917985;29;20560;-86
2022/08/19 07:44:34;;;;;;;22.85;15.85;;;37.40;99.90;;;;;;4913283;29;20055;-86
2022/08/19 07:47:01;;;;;;;21.40;15.10;;;37.60;99.90;;;;;;4906857;29;20096;-86
2022/08/19 07:49:29;;;;;;;22.90;15.43;;;37.70;99.90;;;;;;4933694;29;20493;-86
2022/08/19 07:52:02;;;;;;;20.75;15.30;;;37.70;99.90;;;;;;4917372;29;20032;-86
2022/08/19 07:54:34;;;;;;;26.90;15.02;;;37.90;99.90;;;;;;4901924;29;20040;-86
2022/08/19 08:26:28;;;;;;;23.75;14.32;;;38.00;99.90;;;;;;5936964;23;20075;-94
2022/08/19 08:29:18;;;;;;;;;;;;;;;;;;;;;
2022/08/19 08:53:14;;;;;;;27.67;14.02;;;38.80;99.90;;;;;;4957024;28;20048;-94
2022/08/19 09:12:30;;;;;;;28.60;14.20;;;37.70;99.90;;;;;;4999808;23;20085;-93
2022/08/19 09:15:08;;;;;;;20.92;14.35;;;37.70;99.90;;;;;;4974633;28;20395;-92
2022/08/19 09:17:38;;;;;;;21.00;14.25;;;37.40;99.90;;;;;;4992743;28;20029;-92
2022/08/19 09:20:19;;;;;;;20.92;14.23;;;37.30;99.90;;;;;;5010493;28;20026;-92
2022/08/19 09:22:48;;;;;;;27.33;14.77;;;37.10;99.90;;;;;;5009989;28;20026;-92
2022/08/19 09:25:21;;;;;;;18.92;14.32;;;36.90;99.90;;;;;;4981302;28;20033;-92
2022/08/19 09:27:51;;;;;;;23.02;14.82;;;36.80;99.90;;;;;;4997589;28;20112;-93
2022/08/19 09:30:23;;;;;;;29.38;14.90;;;36.70;99.90;;;;;;4997331;28;20041;-93
2022/08/19 09:32:52;;;;;;;30.83;15.55;;;36.60;99.90;;;;;;4981429;28;20088;-92
2022/08/19 09:35:57;;;;;;;23.10;14.80;;;36.70;99.90;;;;;;4981155;28;20064;-92
2022/08/19 09:38:24;;;;;;;26.05;14.52;;;36.80;99.90;;;;;;4980985;28;20026;-92
2022/08/19 09:40:50;;;;;;;29.25;14.73;;;36.60;99.90;;;;;;4981082;28;20037;-92
2022/08/19 09:43:17;;;;;;;19.15;13.85;;;36.70;99.90;;;;;;4981320;28;20113;-92
2022/08/19 09:45:44;;;;;;;26.92;14.65;;;36.60;99.90;;;;;;4980901;28;20022;-92
2022/08/19 09:48:10;;;;;;;20.75;14.95;;;36.60;99.90;;;;;;4980990;28;20165;-92
2022/08/19 09:50:38;;;;;;;25.17;14.80;;;36.50;99.90;;;;;;4980827;28;20037;-91
2022/08/19 09:53:07;;;;;;;19.55;15.13;;;36.50;99.90;;;;;;4983483;28;20038;-93
2022/08/19 09:55:33;;;;;;;24.23;16.00;;;36.30;99.90;;;;;;4981333;28;20028;-92
2022/08/19 09:58:02;;;;;;;17.83;14.68;;;36.20;99.90;;;;;;4981205;28;20026;-92
2022/08/19 10:00:30;;;;;;;24.45;14.73;;;36.10;99.90;;;;;;4980789;28;20034;-92
2022/08/19 10:02:57;;;;;;;26.25;14.15;;;36.00;99.90;;;;;;4980636;28;20029;-93
2022/08/19 10:08:11;;;;;;;29.38;15.00;;;36.20;99.90;;;;;;4996947;28;20042;-92
2022/08/19 10:10:38;;;;;;;27.48;14.68;;;36.40;99.90;;;;;;4981168;28;20030;-93
2022/08/19 10:13:05;;;;;;;27.40;15.32;;;36.70;99.90;;;;;;4977597;28;20137;-93
2022/08/19 10:15:34;;;;;;;26.52;16.38;;;36.90;99.90;;;;;;4978963;28;20109;-94
2022/08/19 10:18:01;;;;;;;24.27;15.23;;;37.00;99.90;;;;;;4979003;28;20035;-93
2022/08/19 10:20:29;;;;;;;25.60;15.30;;;36.90;99.90;;;;;;4978935;28;20368;-93
2022/08/19 10:23:04;;;;;;;29.08;15.00;;;37.10;99.90;;;;;;4977268;28;20118;-93
2022/08/19 10:25:33;;;;;;;25.55;14.88;;;37.00;99.90;;;;;;4977385;28;20038;-92
2022/08/19 10:28:00;;;;;;;24.92;15.05;;;37.10;99.90;;;;;;4977170;28;20065;-93
2022/08/19 10:30:36;;;;;;;33.28;15.93;;;37.30;99.90;;;;;;4979582;28;20396;-95
2022/08/19 10:33:02;;;;;;;23.42;15.82;;;37.10;99.90;;;;;;4980614;28;20034;-94
2022/08/19 10:35:29;;;;;;;28.83;15.90;;;37.10;99.90;;;;;;4980032;28;20060;-93
2022/08/19 10:38:01;;;;;;;27.52;15.95;;;37.20;99.90;;;;;;4978199;28;20033;-93
2022/08/19 10:41:06;;;;;;;28.42;15.57;;;37.20;99.90;;;;;;4977573;28;20038;-93
2022/08/19 10:43:35;;;;;;;25.63;16.45;;;37.50;99.90;;;;;;4977284;28;20097;-93
2022/08/19 10:46:03;;;;;;;27.30;16.60;;;37.60;99.90;;;;;;4977154;28;20033;-94
2022/08/19 10:48:31;;;;;;;27.92;15.65;;;37.70;99.90;;;;;;4977569;28;20030;-94
2022/08/19 10:53:43;;;;;;;23.83;16.15;;;37.70;99.90;;;;;;4996915;28;20066;-94
2022/08/19 10:58:56;;;;;;;28.02;16.48;;;37.60;99.90;;;;;;4998200;28;20085;-93
2022/08/19 11:01:23;;;;;;;27.83;16.08;;;37.70;99.90;;;;;;4980983;28;20050;-93
2022/08/19 11:03:50;;;;;;;29.98;16.33;;;37.60;99.90;;;;;;4980814;28;20125;-94
2022/08/19 11:06:17;;;;;;;28.92;15.85;;;37.50;99.90;;;;;;4980641;28;20038;-92
2022/08/19 11:08:44;;;;;;;26.60;15.63;;;37.40;99.90;;;;;;4980634;28;20038;-94
2022/08/19 11:11:12;;;;;;;31.73;15.45;;;37.20;99.90;;;;;;4980365;28;20053;-92
2022/08/19 11:13:42;;;;;;;27.90;15.60;;;37.10;99.90;;;;;;4980193;28;20129;-93
2022/08/19 11:16:23;;;;;;;27.42;15.95;;;37.20;99.90;;;;;;4980384;28;20034;-92
2022/08/19 11:19:00;;;;;;;31.15;17.13;;;37.10;99.90;;;;;;4980185;28;20121;-93
2022/08/19 11:21:39;;;;;;;25.60;15.98;;;37.00;99.90;;;;;;4980221;28;20034;-93
2022/08/19 11:24:10;;;;;;;30.67;16.45;;;37.20;99.90;;;;;;4980169;28;20030;-92
2022/08/19 11:26:38;;;;;;;38.88;16.50;;;37.40;99.90;;;;;;4980349;28;20037;-92
2022/08/19 11:29:18;;;;;;;25.38;15.77;;;37.60;99.90;;;;;;4980362;28;20025;-93
2022/08/19 11:31:50;;;;;;;27.23;15.93;;;37.00;99.90;;;;;;4988569;23;20058;-93
2022/08/19 11:34:48;;;;;;;25.98;16.30;;;36.40;99.90;;;;;;4980825;28;20049;-93
2022/08/19 11:37:37;;;;;;;28.92;17.05;;;36.10;99.90;;;;;;4985814;28;20057;-94
2022/08/19 11:40:27;;;;;;;27.58;15.73;;;36.50;99.90;;;;;;4987595;28;20061;-94
2022/08/19 11:43:09;;;;;;;26.05;16.08;;;37.20;99.90;;;;;;5007091;28;20113;-93
2022/08/19 11:45:41;;;;;;;26.60;15.85;;;37.30;99.90;;;;;;4984110;28;20030;-93
2022/08/19 11:48:21;;;;;;;28.15;16.20;;;37.40;99.90;;;;;;5001454;28;20460;-93
2022/08/19 11:50:56;;;;;;;30.35;16.45;;;37.70;99.90;;;;;;4999238;28;20034;-93
2022/08/19 11:53:24;;;;;;;26.95;16.45;;;37.90;99.90;;;;;;4998803;28;20061;-94
2022/08/19 11:55:56;;;;;;;28.85;15.80;;;38.20;99.90;;;;;;4982589;28;20033;-92
2022/08/19 11:58:24;;;;;;;20.77;16.30;;;38.70;99.90;;;;;;4998992;28;20072;-93
2022/08/19 12:00:52;;;;;;;28.92;17.05;;;38.80;99.90;;;;;;4982753;28;20479;-94
2022/08/19 12:03:37;;;;;;;32.75;17.15;;;38.70;99.90;;;;;;4999326;28;20542;-93
2022/08/19 12:06:13;;;;;;;30.48;16.85;;;38.90;99.90;;;;;;4998568;28;20037;-93
2022/08/19 12:08:41;;;;;;;24.85;16.30;;;39.10;99.90;;;;;;5000544;28;20041;-93
2022/08/19 12:11:11;;;;;;;32.22;16.52;;;39.00;99.90;;;;;;4982825;28;20025;-93
2022/08/19 12:13:38;;;;;;;27.35;16.45;;;39.10;99.90;;;;;;4982817;28;20038;-94
2022/08/19 12:16:12;;;;;;;24.90;15.48;;;38.70;99.90;;;;;;4982573;28;20045;-93
2022/08/19 12:18:58;;;;;;;35.88;17.73;;;38.60;99.90;;;;;;4998815;28;20046;-93
2022/08/19 12:21:29;;;;;;;23.48;16.90;;;38.60;99.90;;;;;;5080194;23;20054;-93
2022/08/19 12:24:01;;;;;;;36.72;18.02;;;38.40;99.90;;;;;;4962882;28;20038;-93
2022/08/19 12:26:31;;;;;;;33.55;17.65;;;38.20;99.90;;;;;;4980919;28;20112;-94
2022/08/19 12:29:10;;;;;;;29.55;17.50;;;38.00;99.90;;;;;;4983625;28;20052;-93
2022/08/19 12:31:36;;;;;;;35.80;17.42;;;37.70;99.90;;;;;;4982087;28;20479;-91
2022/08/19 12:34:03;;;;;;;24.95;17.50;;;37.50;99.90;;;;;;4982480;28;20088;-92
2022/08/19 12:36:30;;;;;;;34.22;17.95;;;37.30;99.90;;;;;;4998053;28;20048;-92
2022/08/19 12:39:13;;;;;;;33.10;17.13;;;37.30;99.90;;;;;;4979542;28;20034;-85
2022/08/19 12:41:51;;;;;;;;;;;37.40;99.90;;;;;;5004927;28;20034;-91
2022/08/19 12:44:17;;;;;;;30.02;17.17;;;37.30;99.90;;;;;;4980726;28;19905;-92
2022/08/19 12:46:44;;;;;;;28.30;17.38;;;37.50;99.90;;;;;;4996696;28;20037;-92
2022/08/19 12:49:11;;;;;;;29.33;17.83;;;37.60;99.90;;;;;;4981619;28;20025;-93
2022/08/19 12:51:38;;;;;;;32.05;17.77;;;37.60;99.90;;;;;;4998093;28;20053;-92
2022/08/19 12:54:04;;;;;;;27.75;17.75;;;37.20;99.90;;;;;;4981392;28;20041;-91
2022/08/19 12:56:31;;;;;;;25.05;17.27;;;37.40;99.90;;;;;;4997376;28;20026;-91
2022/08/19 12:59:00;;;;;;;37.92;17.83;;;37.40;99.90;;;;;;4981560;28;20026;-94
2022/08/19 13:01:30;;;;;;;29.02;17.10;;;36.80;99.90;;;;;;4997573;28;20030;-91
2022/08/19 13:03:57;;;;;;;36.85;17.55;;;37.10;99.90;;;;;;4997615;28;20029;-94
2022/08/19 13:06:39;;;;;;;32.75;17.23;;;37.30;99.90;;;;;;4982076;28;20025;-92
2022/08/19 13:12:46;;;;;;;31.15;17.23;;;37.60;99.90;;;;;;4974566;28;20057;-92
2022/08/19 13:15:21;;;;;;;32.17;17.45;;;37.80;99.90;;;;;;4942147;28;20042;-92
2022/08/19 13:40:01;;;;;;;28.88;17.30;;;37.10;99.90;;;;;;5311240;23;20144;-94
2022/08/19 13:42:33;;;;;;;25.50;17.08;;;36.80;99.90;;;;;;4962748;28;20034;-94
2022/08/19 13:45:36;;;;;;;31.20;16.80;;;36.70;99.90;;;;;;4970217;28;20030;-93
2022/08/19 16:46:46;;;;;;;28.90;14.65;;;30.80;99.90;;;;;;4961532;23;20047;-93
2022/08/19 16:52:46;;;;;;;35.20;14.27;;;30.80;99.90;;;;;;4925008;28;20138;-92
2022/08/19 16:55:13;;;;;;;35.13;14.98;;;30.80;99.90;;;;;;4926741;29;20039;-94
2022/08/19 16:57:40;;;;;;;31.10;15.00;;;30.80;99.90;;;;;;4909115;29;20043;-93
2022/08/19 17:00:09;;;;;;;38.35;14.10;;;30.80;99.90;;;;;;4917490;29;20089;-93
2022/08/19 17:02:37;;;;;;;24.77;15.77;;;30.60;99.90;;;;;;4921914;29;22365;-92
2022/08/19 17:05:05;;;;;;;29.70;15.05;;;30.60;99.90;;;;;;4915974;29;20028;-94
2022/08/19 17:07:58;;;;;;;35.95;15.40;;;30.60;99.90;;;;;;4915229;29;20473;-92
2022/08/19 17:10:25;;;;;;;28.45;14.07;;;30.50;99.90;;;;;;4908745;29;20039;-93
2022/08/19 17:12:53;;;;;;;33.10;15.60;;;30.30;99.90;;;;;;4909057;29;20038;-93
2022/08/19 17:15:19;;;;;;;24.65;14.63;;;30.30;99.90;;;;;;4919390;29;20059;-93
2022/08/19 17:17:46;;;;;;;30.00;13.82;;;30.30;99.90;;;;;;4909593;29;20027;-93
2022/08/19 17:20:13;;;;;;;29.85;14.52;;;30.30;99.90;;;;;;4916997;29;20035;-93
2022/08/19 17:22:40;;;;;;;31.80;14.48;;;30.30;99.90;;;;;;4912993;29;20038;-92
2022/08/19 17:25:07;;;;;;;32.20;14.82;;;30.30;99.90;;;;;;4921361;29;20389;-92
2022/08/19 17:27:37;;;;;;;30.50;14.15;;;30.20;99.90;;;;;;4920741;29;20039;-93
2022/08/19 17:30:05;;;;;;;35.10;13.18;;;30.20;99.90;;;;;;4923723;29;20090;-93
2022/08/19 17:32:41;;;;;;;39.30;16.00;;;30.20;99.90;;;;;;4923363;29;20052;-92
2022/08/19 17:35:08;;;;;;;28.30;14.02;;;30.10;99.90;;;;;;4923923;29;20031;-93
2022/08/19 17:37:37;;;;;;;26.85;13.30;;;30.00;99.90;;;;;;4923160;29;20079;-93
2022/08/19 17:40:07;;;;;;;37.78;13.75;;;30.00;99.90;;;;;;4922943;29;20031;-92
2022/08/19 17:42:35;;;;;;;37.78;15.05;;;29.90;99.90;;;;;;4923123;29;20122;-92
2022/08/19 17:45:03;;;;;;;39.30;14.05;;;29.90;99.90;;;;;;4923735;29;20034;-91
2022/08/19 17:47:30;;;;;;;30.50;14.23;;;29.90;99.90;;;;;;4923715;29;20031;-93
2022/08/19 17:49:57;;;;;;;23.73;14.52;;;29.80;99.90;;;;;;4914833;29;20497;-92
2022/08/19 17:52:24;;;;;;;30.48;14.00;;;29.90;99.90;;;;;;4904624;29;20043;-93
2022/08/19 17:54:51;;;;;;;35.75;14.35;;;29.80;99.90;;;;;;4920624;29;20063;-92
2022/08/19 17:57:18;;;;;;;41.00;14.57;;;29.80;99.90;;;;;;4904841;29;20040;-92
2022/08/19 17:59:44;;;;;;;32.30;14.10;;;29.80;99.90;;;;;;4925960;29;20034;-91
2022/08/19 18:02:15;;;;;;;35.42;14.45;;;29.80;99.90;;;;;;4910045;29;20051;-92
2022/08/19 18:04:42;;;;;;;34.35;14.70;;;29.70;99.90;;;;;;4926037;29;20028;-93
2022/08/19 18:07:09;;;;;;;37.70;14.30;;;29.70;99.90;;;;;;4909520;29;20019;-91
2022/08/19 18:09:39;;;;;;;40.03;16.55;;;29.70;99.90;;;;;;4924147;29;20434;-91
2022/08/19 18:12:12;;;;;;;30.02;14.82;;;29.60;99.90;;;;;;4908208;29;20477;-90
2022/08/19 18:14:40;;;;;;;32.50;13.93;;;29.60;99.90;;;;;;4908242;29;20039;-90
2022/08/19 18:17:13;;;;;;;37.47;14.20;;;29.60;99.90;;;;;;4908194;29;20515;-90
2022/08/19 18:19:46;;;;;;;32.65;14.50;;;29.60;99.90;;;;;;4924011;29;20397;-91
2022/08/19 18:22:50;;;;;;;43.20;13.98;;;29.60;99.90;;;;;;4908091;29;20032;-93
2022/08/19 18:26:09;;;;;;;35.38;14.23;;;29.60;99.90;;;;;;4916092;29;20031;-93
2022/08/19 18:28:38;;;;;;;32.08;14.63;;;29.60;99.90;;;;;;4911237;29;20039;-92
2022/08/19 18:31:06;;;;;;;41.63;16.10;;;29.50;99.90;;;;;;4924054;29;20110;-91
2022/08/19 18:33:33;;;;;;;38.63;15.98;;;29.50;99.90;;;;;;4925350;29;20040;-92
2022/08/19 18:36:00;;;;;;;29.88;15.95;;;29.50;99.90;;;;;;4908798;29;20028;-93
2022/08/19 18:49:31;;;;;;;31.13;16.42;;;29.40;99.90;;;;;;4928477;29;20045;-91
2022/08/19 18:52:01;;;;;;;49.97;17.98;;;29.40;99.90;;;;;;4928859;29;20095;-91
2022/08/19 18:54:29;;;;;;;36.83;15.50;;;29.30;99.90;;;;;;4930941;29;20061;-90
2022/08/19 18:56:59;;;;;;;36.88;16.08;;;29.40;99.90;;;;;;4936116;29;20055;-91
2022/08/19 18:59:27;;;;;;;30.20;14.88;;;29.40;99.90;;;;;;4935046;29;20031;-91
2022/08/19 19:01:57;;;;;;;39.72;16.55;;;29.30;99.90;;;;;;4931636;29;20027;-91
2022/08/19 19:04:29;;;;;;;38.20;15.98;;;29.40;99.90;;;;;;4926394;29;20031;-92
2022/08/19 19:06:56;;;;;;;30.30;16.27;;;29.30;99.90;;;;;;4926635;29;20444;-91
2022/08/19 19:09:26;;;;;;;33.00;15.55;;;29.30;99.90;;;;;;4926960;29;20031;-93
2022/08/19 19:11:56;;;;;;;29.55;15.38;;;29.20;99.90;;;;;;4926222;29;20118;-91
2022/08/19 19:14:30;;;;;;;36.88;15.95;;;29.20;99.90;;;;;;4926254;29;20047;-90
2022/08/19 19:17:00;;;;;;;36.58;15.50;;;29.30;99.90;;;;;;4926278;29;20027;-91
2022/08/19 19:19:29;;;;;;;25.52;14.70;;;29.20;99.90;;;;;;4925708;29;20031;-91
2022/08/19 19:21:57;;;;;;;29.48;14.77;;;29.20;99.90;;;;;;4926131;29;20059;-91
2022/08/19 19:24:31;;;;;;;32.10;15.93;;;29.20;99.90;;;;;;4925942;29;20114;-91
2022/08/19 19:27:04;;;;;;;30.05;14.82;;;29.20;99.90;;;;;;4926041;29;20050;-91
2022/08/19 19:29:31;;;;;;;33.93;16.20;;;29.10;99.90;;;;;;4925916;29;20046;-92
2022/08/19 19:31:58;;;;;;;30.45;14.02;;;29.10;99.90;;;;;;4925623;29;20493;-92
2022/08/19 19:34:25;;;;;;;28.23;14.55;;;29.10;99.90;;;;;;4925357;28;20508;-93
2022/08/19 19:36:52;;;;;;;31.60;14.07;;;29.00;99.90;;;;;;4925277;29;20035;-92
2022/08/19 19:39:24;;;;;;;27.15;14.48;;;29.00;99.90;;;;;;4925454;29;20028;-91
2022/08/19 19:41:54;;;;;;;28.50;14.57;;;29.10;99.90;;;;;;4925469;29;20042;-91
2022/08/19 19:44:25;;;;;;;37.05;14.27;;;29.00;99.90;;;;;;4925442;29;20118;-92
2022/08/19 19:46:55;;;;;;;34.13;13.77;;;29.00;99.90;;;;;;4925390;29;20114;-92
2022/08/19 19:49:22;;;;;;;33.40;13.90;;;29.00;99.90;;;;;;4925024;29;20497;-91
2022/08/19 19:51:50;;;;;;;37.35;14.05;;;28.90;99.90;;;;;;4925185;29;20042;-91
2022/08/19 19:54:19;;;;;;;27.73;12.50;;;28.80;99.90;;;;;;4925733;29;20035;-92
2022/08/19 19:56:49;;;;;;;33.90;13.85;;;28.80;99.90;;;;;;4925163;29;20031;-92
2022/08/19 19:59:17;;;;;;;37.72;13.40;;;28.70;99.90;;;;;;4925435;29;20047;-91
2022/08/19 20:01:44;;;;;;;28.88;13.68;;;28.70;99.90;;;;;;4925159;29;20031;-92
2022/08/19 20:04:35;;;;;;;33.90;13.32;;;28.70;99.90;;;;;;4924784;29;20035;-91
2022/08/19 20:07:01;;;;;;;35.50;13.82;;;28.60;99.90;;;;;;4925165;29;20028;-90
2022/08/19 20:09:39;;;;;;;39.28;14.98;;;28.60;99.90;;;;;;4926893;29;20440;-92
2022/08/19 20:12:06;;;;;;;36.65;14.30;;;28.60;99.90;;;;;;4924880;29;20038;-93
2022/08/19 20:14:37;;;;;;;30.60;13.73;;;28.60;99.90;;;;;;4924880;29;20094;-91
2022/08/19 20:17:04;;;;;;;41.08;13.90;;;28.60;99.90;;;;;;4925014;29;20508;-89
2022/08/19 20:19:35;;;;;;;36.45;13.63;;;28.60;99.90;;;;;;4924801;29;20039;-91
2022/08/19 20:22:05;;;;;;;38.60;14.20;;;28.60;99.90;;;;;;4923889;29;20027;-92
2022/08/19 20:24:34;;;;;;;32.50;12.98;;;28.50;99.90;;;;;;4925202;29;20019;-90
2022/08/19 20:27:03;;;;;;;37.83;12.73;;;28.60;99.90;;;;;;4925996;29;20062;-91
2022/08/19 20:29:30;;;;;;;28.10;13.02;;;28.60;99.90;;;;;;4925153;28;20038;-92
2022/08/19 20:31:57;;;;;;;24.63;12.05;;;28.60;99.90;;;;;;4924887;29;20035;-90
2022/08/19 20:34:30;;;;;;;33.05;12.70;;;28.50;99.90;;;;;;4924534;29;20039;-93
2022/08/19 20:36:57;;;;;;;29.58;12.90;;;28.50;99.90;;;;;;4924790;29;20081;-91
2022/08/19 20:39:24;;;;;;;27.80;12.80;;;28.50;99.90;;;;;;4924730;29;20039;-91
2022/08/19 20:41:51;;;;;;;35.83;12.68;;;28.50;99.90;;;;;;4924424;29;20448;-91
2022/08/19 20:44:18;;;;;;;30.85;12.55;;;28.50;99.90;;;;;;4924383;29;20481;-90
2022/08/19 20:46:45;;;;;;;39.13;13.88;;;28.50;99.90;;;;;;4924060;29;20031;-91
2022/08/19 20:49:12;;;;;;;30.40;14.13;;;28.40;99.90;;;;;;4924409;29;20078;-93
2022/08/19 20:51:39;;;;;;;29.75;13.93;;;28.40;99.90;;;;;;4924420;29;20105;-92
2022/08/19 20:54:05;;;;;;;36.53;14.23;;;28.40;99.90;;;;;;4924116;29;20050;-92
2022/08/19 20:56:32;;;;;;;24.88;11.88;;;28.30;99.90;;;;;;4921265;29;20031;-91
2022/08/19 20:59:03;;;;;;;30.38;12.70;;;28.30;99.90;;;;;;4905567;29;20035;-92
2022/08/19 21:01:30;;;;;;;26.23;12.43;;;28.30;99.90;;;;;;4921166;29;20063;-92
2022/08/19 21:03:57;;;;;;;27.30;12.23;;;28.20;99.90;;;;;;4920882;29;20059;-93
2022/08/19 21:06:24;;;;;;;34.60;13.20;;;28.10;99.90;;;;;;4920832;29;20075;-92
2022/08/19 21:08:52;;;;;;;37.97;12.43;;;28.00;99.90;;;;;;4905349;29;20036;-92
2022/08/19 21:11:21;;;;;;;26.45;11.82;;;27.90;99.90;;;;;;4920906;29;20032;-92
2022/08/19 21:13:48;;;;;;;41.25;12.48;;;27.90;99.90;;;;;;4905429;29;20043;-91
2022/08/19 21:16:15;;;;;;;32.92;12.50;;;27.90;99.90;;;;;;4920688;29;20051;-92
2022/08/19 21:18:42;;;;;;;36.00;13.07;;;27.90;99.90;;;;;;4920742;29;20027;-91
2022/08/19 21:21:08;;;;;;;32.28;12.35;;;27.80;99.90;;;;;;4939636;29;20023;-91
2022/08/19 21:23:35;;;;;;;32.33;13.35;;;27.90;99.90;;;;;;4918708;29;20043;-92
2022/08/19 21:26:23;;;;;;;34.03;13.40;;;27.80;99.90;;;;;;4920866;29;20118;-92
2022/08/19 21:28:50;;;;;;;32.03;13.93;;;27.90;99.90;;;;;;4920403;29;20035;-91
2022/08/19 21:31:18;;;;;;;39.38;13.40;;;27.90;99.90;;;;;;4934524;23;20020;-93
2022/08/19 21:33:45;;;;;;;28.70;13.60;;;27.90;99.90;;;;;;4920617;29;20095;-92
2022/08/19 21:36:12;;;;;;;29.77;14.02;;;27.90;99.90;;;;;;4920303;29;20110;-95
2022/08/19 21:39:19;;;;;;;35.20;14.10;;;27.90;99.90;;;;;;4920623;29;20039;-94
2022/08/19 21:48:53;;;;;;;29.23;13.43;;;27.90;99.90;;;;;;5505283;23;20062;-92
2022/08/19 21:51:48;;;;;;;29.98;13.18;;;27.80;99.90;;;;;;4883727;29;20104;-93
2022/08/19 21:54:19;;;;;;;30.45;14.30;;;27.70;99.90;;;;;;4900176;28;20052;-92
2022/08/19 22:00:53;;;;;;;23.13;13.00;;;27.70;99.90;;;;;;4888371;29;20552;-93
2022/08/19 22:17:10;;;;;;;28.80;13.57;;;27.50;99.90;;;;;;5552688;23;20032;-91
2022/08/19 22:19:51;;;;;;;32.47;14.15;;;27.40;99.90;;;;;;4943176;28;20042;-92
2022/08/19 22:22:28;;;;;;;29.70;13.68;;;27.50;99.90;;;;;;4943386;28;20503;-92
2022/08/19 22:25:09;;;;;;;26.70;14.70;;;27.50;99.90;;;;;;4942558;28;20031;-93
2022/08/19 22:27:36;;;;;;;24.50;13.50;;;27.40;99.90;;;;;;4923343;29;20060;-92
2022/08/19 22:30:10;;;;;;;26.35;14.15;;;27.50;99.90;;;;;;4939441;29;20037;-92
2022/08/19 22:32:53;;;;;;;24.60;13.82;;;27.40;99.90;;;;;;4939797;29;20166;-92
2022/08/19 22:35:23;;;;;;;33.20;13.93;;;27.40;99.90;;;;;;4939276;29;20046;-94
2022/08/19 22:38:36;;;;;;;34.85;14.10;;;27.40;99.90;;;;;;4939664;29;20048;-93
2022/08/19 22:41:18;;;;;;;30.70;12.95;;;27.30;99.90;;;;;;4885049;28;20036;-93
2022/08/19 22:43:53;;;;;;;24.63;13.95;;;27.40;99.90;;;;;;4901293;29;20032;-95
2022/08/19 22:46:19;;;;;;;27.50;14.30;;;27.40;99.90;;;;;;4885975;29;20486;-93
2022/08/19 22:48:47;;;;;;;36.30;14.32;;;27.40;99.90;;;;;;4887954;29;20062;-91
